sensor_id;sensor_type;location;lat;lon;timestamp;pressure;altitude;pressure_sealevel;temperature;humidity
51261;BME280;61705;46.228;24.812;2023-05-25T00:02:12;97484.97;;;16.34;68.57
51261;BME280;61705;46.228;24.812;2023-05-25T00:04:40;97487.78;;;16.32;68.67
51261;BME280;61705;46.228;24.812;2023-05-25T00:07:07;97488.06;;;16.41;68.40
51261;BME280;61705;46.228;24.812;2023-05-25T00:09:34;97493.72;;;16.36;68.72
51261;BME280;61705;46.228;24.812;2023-05-25T00:12:01;97493.66;;;16.38;68.64
51261;BME280;61705;46.228;24.812;2023-05-25T00:14:28;97497.59;;;16.32;68.62
51261;BME280;61705;46.228;24.812;2023-05-25T00:16:56;97492.59;;;16.27;69.20
51261;BME280;61705;46.228;24.812;2023-05-25T00:19:23;97498.03;;;16.26;69.23
51261;BME280;61705;46.228;24.812;2023-05-25T00:21:50;97498.44;;;16.20;69.57
51261;BME280;61705;46.228;24.812;2023-05-25T00:24:17;97506.56;;;16.18;69.56
51261;BME280;61705;46.228;24.812;2023-05-25T00:26:44;97507.41;;;16.19;69.76
51261;BME280;61705;46.228;24.812;2023-05-25T00:29:11;97504.13;;;16.15;69.80
51261;BME280;61705;46.228;24.812;2023-05-25T00:31:40;97502.06;;;16.31;69.50
51261;BME280;61705;46.228;24.812;2023-05-25T00:34:06;97505.59;;;16.32;69.82
51261;BME280;61705;46.228;24.812;2023-05-25T00:36:33;97506.25;;;16.23;70.04
51261;BME280;61705;46.228;24.812;2023-05-25T00:39:00;97501.03;;;16.08;70.71
51261;BME280;61705;46.228;24.812;2023-05-25T00:41:27;97505.19;;;16.13;70.63
51261;BME280;61705;46.228;24.812;2023-05-25T00:43:54;97504.53;;;16.09;70.43
51261;BME280;61705;46.228;24.812;2023-05-25T00:46:21;97506.78;;;16.15;70.34
51261;BME280;61705;46.228;24.812;2023-05-25T00:48:51;97510.72;;;16.09;70.40
51261;BME280;61705;46.228;24.812;2023-05-25T00:51:20;97514.91;;;16.01;70.92
51261;BME280;61705;46.228;24.812;2023-05-25T00:53:47;97514.56;;;15.93;71.28
51261;BME280;61705;46.228;24.812;2023-05-25T00:56:17;97517.88;;;15.96;71.24
51261;BME280;61705;46.228;24.812;2023-05-25T00:58:49;97519.81;;;15.81;72.34
51261;BME280;61705;46.228;24.812;2023-05-25T01:01:17;97507.97;;;15.85;71.67
51261;BME280;61705;46.228;24.812;2023-05-25T01:03:47;97512.03;;;15.91;71.39
51261;BME280;61705;46.228;24.812;2023-05-25T01:06:21;97513.63;;;15.94;71.36
51261;BME280;61705;46.228;24.812;2023-05-25T01:08:53;97513.84;;;15.91;71.48
51261;BME280;61705;46.228;24.812;2023-05-25T01:11:30;97511.47;;;15.86;71.65
51261;BME280;61705;46.228;24.812;2023-05-25T01:13:57;97517.13;;;15.81;72.04
51261;BME280;61705;46.228;24.812;2023-05-25T01:16:24;97519.16;;;15.78;72.22
51261;BME280;61705;46.228;24.812;2023-05-25T01:18:51;97516.28;;;15.81;72.02
51261;BME280;61705;46.228;24.812;2023-05-25T01:21:30;97516.19;;;15.95;71.45
51261;BME280;61705;46.228;24.812;2023-05-25T01:24:13;97515.88;;;15.87;71.95
51261;BME280;61705;46.228;24.812;2023-05-25T01:27:02;97520.09;;;15.64;72.88
51261;BME280;61705;46.228;24.812;2023-05-25T01:29:33;97516.28;;;15.68;72.95
51261;BME280;61705;46.228;24.812;2023-05-25T01:32:02;97520.81;;;15.53;73.48
51261;BME280;61705;46.228;24.812;2023-05-25T01:34:30;97512.50;;;15.58;73.81
51261;BME280;61705;46.228;24.812;2023-05-25T01:36:58;97509.31;;;15.65;73.53
51261;BME280;61705;46.228;24.812;2023-05-25T01:39:24;97516.44;;;15.65;73.70
51261;BME280;61705;46.228;24.812;2023-05-25T01:41:51;97511.78;;;15.56;73.91
51261;BME280;61705;46.228;24.812;2023-05-25T01:44:18;97513.63;;;15.68;73.41
51261;BME280;61705;46.228;24.812;2023-05-25T01:46:48;97513.63;;;15.68;73.33
51261;BME280;61705;46.228;24.812;2023-05-25T01:49:30;97507.63;;;15.64;73.75
51261;BME280;61705;46.228;24.812;2023-05-25T01:52:27;97505.16;;;15.61;73.98
51261;BME280;61705;46.228;24.812;2023-05-25T01:55:07;97504.31;;;15.61;73.80
51261;BME280;61705;46.228;24.812;2023-05-25T01:57:40;97508.56;;;15.51;74.30
51261;BME280;61705;46.228;24.812;2023-05-25T02:00:09;97508.03;;;15.58;73.85
51261;BME280;61705;46.228;24.812;2023-05-25T02:02:39;97509.13;;;15.69;73.70
51261;BME280;61705;46.228;24.812;2023-05-25T02:05:08;97504.34;;;15.74;73.53
51261;BME280;61705;46.228;24.812;2023-05-25T02:07:35;97504.34;;;15.74;73.92
51261;BME280;61705;46.228;24.812;2023-05-25T02:10:02;97511.06;;;15.79;73.14
51261;BME280;61705;46.228;24.812;2023-05-25T02:12:29;97513.72;;;15.79;73.25
51261;BME280;61705;46.228;24.812;2023-05-25T02:14:55;97512.22;;;15.75;73.83
51261;BME280;61705;46.228;24.812;2023-05-25T02:17:22;97521.41;;;15.84;73.43
51261;BME280;61705;46.228;24.812;2023-05-25T02:19:53;97520.84;;;15.79;73.56
51261;BME280;61705;46.228;24.812;2023-05-25T02:22:20;97520.78;;;15.80;73.56
51261;BME280;61705;46.228;24.812;2023-05-25T02:24:47;97520.56;;;15.71;74.18
51261;BME280;61705;46.228;24.812;2023-05-25T02:27:14;97518.53;;;15.74;73.95
51261;BME280;61705;46.228;24.812;2023-05-25T02:29:41;97519.50;;;15.73;73.65
51261;BME280;61705;46.228;24.812;2023-05-25T02:32:08;97524.34;;;15.54;74.14
51261;BME280;61705;46.228;24.812;2023-05-25T02:34:34;97521.22;;;15.47;74.80
51261;BME280;61705;46.228;24.812;2023-05-25T02:37:01;97533.38;;;15.51;74.90
51261;BME280;61705;46.228;24.812;2023-05-25T02:39:28;97537.31;;;15.46;75.20
51261;BME280;61705;46.228;24.812;2023-05-25T02:41:55;97540.06;;;15.44;74.68
51261;BME280;61705;46.228;24.812;2023-05-25T02:44:21;97534.03;;;15.55;74.72
51261;BME280;61705;46.228;24.812;2023-05-25T02:46:48;97532.56;;;15.63;74.39
51261;BME280;61705;46.228;24.812;2023-05-25T02:49:14;97538.63;;;15.65;74.38
51261;BME280;61705;46.228;24.812;2023-05-25T02:51:41;97537.25;;;15.60;74.73
51261;BME280;61705;46.228;24.812;2023-05-25T02:54:08;97537.31;;;15.58;74.65
51261;BME280;61705;46.228;24.812;2023-05-25T02:56:35;97535.84;;;15.54;74.90
51261;BME280;61705;46.228;24.812;2023-05-25T02:59:02;97546.25;;;15.45;75.92
51261;BME280;61705;46.228;24.812;2023-05-25T03:01:29;97540.72;;;15.48;75.70
51261;BME280;61705;46.228;24.812;2023-05-25T03:03:56;97541.59;;;15.61;75.21
51261;BME280;61705;46.228;24.812;2023-05-25T03:06:23;97551.50;;;15.46;76.25
51261;BME280;61705;46.228;24.812;2023-05-25T03:08:51;97549.75;;;15.45;76.40
51261;BME280;61705;46.228;24.812;2023-05-25T03:11:18;97552.53;;;15.44;76.57
51261;BME280;61705;46.228;24.812;2023-05-25T03:13:45;97554.47;;;15.54;76.13
51261;BME280;61705;46.228;24.812;2023-05-25T03:16:11;97553.31;;;15.58;75.95
51261;BME280;61705;46.228;24.812;2023-05-25T03:18:38;97548.84;;;15.59;75.88
51261;BME280;61705;46.228;24.812;2023-05-25T03:21:05;97551.53;;;15.59;76.27
51261;BME280;61705;46.228;24.812;2023-05-25T03:23:32;97550.53;;;15.47;77.02
51261;BME280;61705;46.228;24.812;2023-05-25T03:25:58;97550.53;;;15.47;77.30
51261;BME280;61705;46.228;24.812;2023-05-25T03:28:25;97546.91;;;15.48;77.17
51261;BME280;61705;46.228;24.812;2023-05-25T03:30:52;97552.66;;;15.55;76.75
51261;BME280;61705;46.228;24.812;2023-05-25T03:33:18;97553.31;;;15.58;77.00
51261;BME280;61705;46.228;24.812;2023-05-25T03:35:45;97549.22;;;15.67;76.63
51261;BME280;61705;46.228;24.812;2023-05-25T03:38:12;97542.91;;;15.68;76.65
51261;BME280;61705;46.228;24.812;2023-05-25T03:40:39;97547.31;;;15.69;76.68
51261;BME280;61705;46.228;24.812;2023-05-25T03:43:05;97552.91;;;15.64;77.28
51261;BME280;61705;46.228;24.812;2023-05-25T03:45:32;97552.38;;;15.59;77.68
51261;BME280;61705;46.228;24.812;2023-05-25T03:47:59;97555.03;;;15.59;77.73
51261;BME280;61705;46.228;24.812;2023-05-25T03:50:26;97559.03;;;15.67;77.54
51261;BME280;61705;46.228;24.812;2023-05-25T03:52:52;97554.97;;;15.74;77.18
51261;BME280;61705;46.228;24.812;2023-05-25T03:55:19;97557.03;;;15.83;76.83
51261;BME280;61705;46.228;24.812;2023-05-25T03:57:46;97554.00;;;15.75;77.28
51261;BME280;61705;46.228;24.812;2023-05-25T04:00:13;97562.44;;;15.81;77.11
51261;BME280;61705;46.228;24.812;2023-05-25T04:02:40;97558.38;;;15.88;76.84
51261;BME280;61705;46.228;24.812;2023-05-25T04:05:07;97558.09;;;15.93;76.46
51261;BME280;61705;46.228;24.812;2023-05-25T04:07:34;97562.88;;;15.88;77.08
51261;BME280;61705;46.228;24.812;2023-05-25T04:10:03;97561.16;;;16.00;76.67
51261;BME280;61705;46.228;24.812;2023-05-25T04:12:29;97569.91;;;15.89;77.40
51261;BME280;61705;46.228;24.812;2023-05-25T04:14:57;97570.03;;;15.87;77.32
51261;BME280;61705;46.228;24.812;2023-05-25T04:17:24;97569.25;;;15.85;77.71
51261;BME280;61705;46.228;24.812;2023-05-25T04:19:51;97572.69;;;15.87;77.44
51261;BME280;61705;46.228;24.812;2023-05-25T04:22:18;97575.56;;;15.84;78.04
51261;BME280;61705;46.228;24.812;2023-05-25T04:24:45;97577.38;;;15.84;78.29
51261;BME280;61705;46.228;24.812;2023-05-25T04:27:12;97573.84;;;15.83;78.00
51261;BME280;61705;46.228;24.812;2023-05-25T04:29:45;97582.06;;;15.80;78.65
51261;BME280;61705;46.228;24.812;2023-05-25T04:32:12;97583.97;;;15.78;78.48
51261;BME280;61705;46.228;24.812;2023-05-25T04:34:43;97590.25;;;15.77;78.69
51261;BME280;61705;46.228;24.812;2023-05-25T04:37:12;97583.56;;;15.84;78.64
51261;BME280;61705;46.228;24.812;2023-05-25T04:39:39;97585.59;;;15.94;78.23
51261;BME280;61705;46.228;24.812;2023-05-25T04:42:06;97593.81;;;16.16;77.48
51261;BME280;61705;46.228;24.812;2023-05-25T04:44:33;97590.84;;;16.21;77.18
51261;BME280;61705;46.228;24.812;2023-05-25T04:46:59;97591.78;;;16.32;76.93
51261;BME280;61705;46.228;24.812;2023-05-25T04:49:29;97596.69;;;16.39;76.86
51261;BME280;61705;46.228;24.812;2023-05-25T04:51:57;97602.34;;;16.21;78.23
51261;BME280;61705;46.228;24.812;2023-05-25T04:54:23;97599.03;;;16.18;78.69
51261;BME280;61705;46.228;24.812;2023-05-25T04:56:50;97602.00;;;16.13;78.91
51261;BME280;61705;46.228;24.812;2023-05-25T04:59:17;97605.53;;;16.14;79.15
51261;BME280;61705;46.228;24.812;2023-05-25T05:01:44;97607.47;;;16.24;79.18
51261;BME280;61705;46.228;24.812;2023-05-25T05:04:11;97607.25;;;16.27;79.08
51261;BME280;61705;46.228;24.812;2023-05-25T05:06:38;97605.94;;;16.20;79.59
51261;BME280;61705;46.228;24.812;2023-05-25T05:09:07;97607.03;;;16.18;79.42
51261;BME280;61705;46.228;24.812;2023-05-25T05:11:34;97611.28;;;16.33;79.44
51261;BME280;61705;46.228;24.812;2023-05-25T05:14:01;97607.56;;;16.35;78.95
51261;BME280;61705;46.228;24.812;2023-05-25T05:16:27;97612.34;;;16.30;79.64
51261;BME280;61705;46.228;24.812;2023-05-25T05:19:02;97609.25;;;16.37;79.79
51261;BME280;61705;46.228;24.812;2023-05-25T05:21:29;97613.19;;;16.44;79.73
51261;BME280;61705;46.228;24.812;2023-05-25T05:23:56;97621.53;;;16.52;79.15
51261;BME280;61705;46.228;24.812;2023-05-25T05:26:22;97617.47;;;16.59;78.68
51261;BME280;61705;46.228;24.812;2023-05-25T05:28:49;97615.00;;;16.69;78.58
51261;BME280;61705;46.228;24.812;2023-05-25T05:31:18;97616.31;;;16.76;78.65
51261;BME280;61705;46.228;24.812;2023-05-25T05:33:45;97624.19;;;16.77;78.96
51261;BME280;61705;46.228;24.812;2023-05-25T05:36:12;97624.16;;;17.03;77.98
51261;BME280;61705;46.228;24.812;2023-05-25T05:38:39;97628.66;;;16.90;78.31
51261;BME280;61705;46.228;24.812;2023-05-25T05:41:08;97630.47;;;16.89;78.38
51261;BME280;61705;46.228;24.812;2023-05-25T05:43:40;97625.03;;;16.91;78.38
51261;BME280;61705;46.228;24.812;2023-05-25T05:46:09;97629.50;;;16.90;78.07
51261;BME280;61705;46.228;24.812;2023-05-25T05:48:36;97620.31;;;16.94;78.43
51261;BME280;61705;46.228;24.812;2023-05-25T05:51:04;97634.41;;;16.96;78.07
51261;BME280;61705;46.228;24.812;2023-05-25T05:53:31;97636.41;;;17.05;78.38
51261;BME280;61705;46.228;24.812;2023-05-25T05:55:59;97633.03;;;17.27;77.72
51261;BME280;61705;46.228;24.812;2023-05-25T05:58:25;97639.09;;;17.29;77.28
51261;BME280;61705;46.228;24.812;2023-05-25T06:00:52;97638.56;;;17.37;76.95
51261;BME280;61705;46.228;24.812;2023-05-25T06:03:19;97631.97;;;17.54;76.30
51261;BME280;61705;46.228;24.812;2023-05-25T06:05:47;97634.34;;;17.70;76.29
51261;BME280;61705;46.228;24.812;2023-05-25T06:08:14;97632.69;;;17.56;76.46
51261;BME280;61705;46.228;24.812;2023-05-25T06:10:41;97635.50;;;17.79;75.62
51261;BME280;61705;46.228;24.812;2023-05-25T06:13:07;97631.88;;;17.91;75.40
51261;BME280;61705;46.228;24.812;2023-05-25T06:15:34;97636.91;;;17.95;75.17
51261;BME280;61705;46.228;24.812;2023-05-25T06:18:01;97636.19;;;18.05;74.88
51261;BME280;61705;46.228;24.812;2023-05-25T06:20:29;97631.72;;;18.16;74.25
51261;BME280;61705;46.228;24.812;2023-05-25T06:22:55;97632.81;;;18.14;74.28
51261;BME280;61705;46.228;24.812;2023-05-25T06:25:26;97630.97;;;18.14;74.36
51261;BME280;61705;46.228;24.812;2023-05-25T06:27:53;97632.22;;;18.21;73.78
51261;BME280;61705;46.228;24.812;2023-05-25T06:30:20;97636.25;;;18.38;73.50
51261;BME280;61705;46.228;24.812;2023-05-25T06:32:47;97629.06;;;18.16;72.97
51261;BME280;61705;46.228;24.812;2023-05-25T06:35:14;97632.13;;;18.23;72.58
51261;BME280;61705;46.228;24.812;2023-05-25T06:37:46;97631.50;;;18.31;72.20
51261;BME280;61705;46.228;24.812;2023-05-25T06:40:17;97630.28;;;18.23;71.75
51261;BME280;61705;46.228;24.812;2023-05-25T06:42:44;97634.28;;;18.18;71.58
51261;BME280;61705;46.228;24.812;2023-05-25T06:45:10;97638.53;;;18.09;71.92
51261;BME280;61705;46.228;24.812;2023-05-25T06:47:37;97638.38;;;18.11;72.36
51261;BME280;61705;46.228;24.812;2023-05-25T06:50:05;97639.78;;;18.28;71.97
51261;BME280;61705;46.228;24.812;2023-05-25T06:52:31;97634.06;;;18.32;72.15
51261;BME280;61705;46.228;24.812;2023-05-25T06:54:58;97640.09;;;18.12;72.44
51261;BME280;61705;46.228;24.812;2023-05-25T06:57:25;97641.50;;;17.93;72.80
51261;BME280;61705;46.228;24.812;2023-05-25T06:59:52;97651.72;;;17.88;73.38
51261;BME280;61705;46.228;24.812;2023-05-25T07:02:18;97648.50;;;17.83;73.36
51261;BME280;61705;46.228;24.812;2023-05-25T07:04:46;97654.00;;;17.69;73.40
51261;BME280;61705;46.228;24.812;2023-05-25T07:07:13;97654.91;;;17.57;73.73
51261;BME280;61705;46.228;24.812;2023-05-25T07:09:40;97659.31;;;17.58;73.29
51261;BME280;61705;46.228;24.812;2023-05-25T07:12:18;97663.34;;;17.63;73.01
51261;BME280;61705;46.228;24.812;2023-05-25T07:14:58;97667.66;;;17.53;73.33
51261;BME280;61705;46.228;24.812;2023-05-25T07:17:25;97665.59;;;17.57;74.07
51261;BME280;61705;46.228;24.812;2023-05-25T07:19:53;97659.81;;;17.63;73.96
51261;BME280;61705;46.228;24.812;2023-05-25T07:22:20;97664.97;;;17.53;74.79
51261;BME280;61705;46.228;24.812;2023-05-25T07:24:49;97652.16;;;17.58;74.53
51261;BME280;61705;46.228;24.812;2023-05-25T07:27:15;97667.38;;;17.69;74.35
51261;BME280;61705;46.228;24.812;2023-05-25T07:29:42;97667.97;;;17.85;74.30
51261;BME280;61705;46.228;24.812;2023-05-25T07:32:09;97665.41;;;17.84;75.05
51261;BME280;61705;46.228;24.812;2023-05-25T07:34:35;97664.91;;;17.79;75.93
51261;BME280;61705;46.228;24.812;2023-05-25T07:37:02;97665.63;;;17.81;76.36
51261;BME280;61705;46.228;24.812;2023-05-25T07:39:29;97673.88;;;17.77;76.95
51261;BME280;61705;46.228;24.812;2023-05-25T07:41:56;97678.38;;;17.77;77.16
51261;BME280;61705;46.228;24.812;2023-05-25T07:44:22;97670.16;;;17.91;76.60
51261;BME280;61705;46.228;24.812;2023-05-25T07:46:49;97670.47;;;17.99;76.10
51261;BME280;61705;46.228;24.812;2023-05-25T07:49:16;97666.50;;;18.16;75.90
51261;BME280;61705;46.228;24.812;2023-05-25T07:51:43;97662.16;;;18.27;75.36
51261;BME280;61705;46.228;24.812;2023-05-25T07:54:11;97660.84;;;18.43;74.83
51261;BME280;61705;46.228;24.812;2023-05-25T07:56:38;97662.84;;;18.75;74.41
51261;BME280;61705;46.228;24.812;2023-05-25T07:59:05;97662.34;;;18.70;74.07
51261;BME280;61705;46.228;24.812;2023-05-25T08:01:32;97648.59;;;18.97;73.69
51261;BME280;61705;46.228;24.812;2023-05-25T08:03:58;97652.38;;;19.28;73.73
51261;BME280;61705;46.228;24.812;2023-05-25T08:06:26;97662.16;;;19.50;72.87
51261;BME280;61705;46.228;24.812;2023-05-25T08:08:52;97655.22;;;19.48;73.52
51261;BME280;61705;46.228;24.812;2023-05-25T08:11:22;97657.09;;;19.79;72.32
51261;BME280;61705;46.228;24.812;2023-05-25T08:13:53;97647.78;;;19.95;71.65
51261;BME280;61705;46.228;24.812;2023-05-25T08:16:19;97656.09;;;20.33;71.52
51261;BME280;61705;46.228;24.812;2023-05-25T08:18:46;97645.00;;;20.59;70.00
51261;BME280;61705;46.228;24.812;2023-05-25T08:21:13;97654.16;;;20.56;70.27
51261;BME280;61705;46.228;24.812;2023-05-25T08:23:40;97654.31;;;20.55;70.07
51261;BME280;61705;46.228;24.812;2023-05-25T08:26:09;97656.63;;;20.69;70.09
51261;BME280;61705;46.228;24.812;2023-05-25T08:28:56;97658.69;;;20.56;69.99
51261;BME280;61705;46.228;24.812;2023-05-25T08:31:28;97660.75;;;20.73;68.84
51261;BME280;61705;46.228;24.812;2023-05-25T08:34:00;97659.59;;;20.45;69.18
51261;BME280;61705;46.228;24.812;2023-05-25T08:36:32;97663.84;;;20.48;69.02
51261;BME280;61705;46.228;24.812;2023-05-25T08:39:01;97664.06;;;20.56;68.65
51261;BME280;61705;46.228;24.812;2023-05-25T08:41:34;97665.28;;;20.73;68.08
51261;BME280;61705;46.228;24.812;2023-05-25T08:44:02;97662.72;;;20.71;67.72
51261;BME280;61705;46.228;24.812;2023-05-25T08:46:32;97664.16;;;20.75;67.18
51261;BME280;61705;46.228;24.812;2023-05-25T08:49:07;97670.34;;;20.66;67.36
51261;BME280;61705;46.228;24.812;2023-05-25T08:51:36;97668.28;;;20.79;67.34
51261;BME280;61705;46.228;24.812;2023-05-25T08:54:07;97663.81;;;20.90;66.41
51261;BME280;61705;46.228;24.812;2023-05-25T08:59:43;97662.66;;;20.82;66.29
51261;BME280;61705;46.228;24.812;2023-05-25T09:02:23;97651.97;;;21.02;65.40
51261;BME280;61705;46.228;24.812;2023-05-25T09:04:52;97651.97;;;21.02;65.45
51261;BME280;61705;46.228;24.812;2023-05-25T09:07:20;97655.34;;;20.94;64.69
51261;BME280;61705;46.228;24.812;2023-05-25T09:09:47;97651.13;;;21.01;64.20
51261;BME280;61705;46.228;24.812;2023-05-25T09:12:18;97647.72;;;20.99;64.46
51261;BME280;61705;46.228;24.812;2023-05-25T09:14:46;97640.31;;;21.32;63.77
51261;BME280;61705;46.228;24.812;2023-05-25T09:17:14;97645.91;;;21.60;63.87
51261;BME280;61705;46.228;24.812;2023-05-25T09:19:42;97632.78;;;21.76;63.92
51261;BME280;61705;46.228;24.812;2023-05-25T09:22:10;97635.88;;;21.52;63.81
51261;BME280;61705;46.228;24.812;2023-05-25T09:24:43;97642.53;;;21.58;64.78
51261;BME280;61705;46.228;24.812;2023-05-25T09:27:12;97630.66;;;21.80;64.72
51261;BME280;61705;46.228;24.812;2023-05-25T09:29:42;97631.66;;;21.88;64.28
51261;BME280;61705;46.228;24.812;2023-05-25T09:32:09;97631.66;;;21.79;64.50
51261;BME280;61705;46.228;24.812;2023-05-25T09:34:36;97643.38;;;21.77;64.73
51261;BME280;61705;46.228;24.812;2023-05-25T09:37:10;97648.47;;;21.81;64.35
51261;BME280;61705;46.228;24.812;2023-05-25T09:39:38;97652.16;;;21.70;64.86
51261;BME280;61705;46.228;24.812;2023-05-25T09:42:05;97648.91;;;21.76;64.43
51261;BME280;61705;46.228;24.812;2023-05-25T09:44:32;97646.38;;;21.84;64.56
51261;BME280;61705;46.228;24.812;2023-05-25T09:46:59;97643.97;;;21.91;64.44
51261;BME280;61705;46.228;24.812;2023-05-25T09:49:26;97651.75;;;21.94;63.50
51261;BME280;61705;46.228;24.812;2023-05-25T09:51:53;97650.34;;;21.99;63.91
51261;BME280;61705;46.228;24.812;2023-05-25T09:54:21;97647.53;;;21.82;63.67
51261;BME280;61705;46.228;24.812;2023-05-25T09:56:48;97648.34;;;21.72;63.78
51261;BME280;61705;46.228;24.812;2023-05-25T09:59:15;97646.63;;;21.81;64.14
51261;BME280;61705;46.228;24.812;2023-05-25T10:01:50;97646.81;;;21.89;64.17
51261;BME280;61705;46.228;24.812;2023-05-25T10:04:19;97645.41;;;21.95;64.39
51261;BME280;61705;46.228;24.812;2023-05-25T10:06:47;97644.44;;;22.15;63.54
51261;BME280;61705;46.228;24.812;2023-05-25T10:09:18;97644.56;;;22.23;63.05
51261;BME280;61705;46.228;24.812;2023-05-25T10:11:46;97639.09;;;22.53;62.26
51261;BME280;61705;46.228;24.812;2023-05-25T10:14:16;97633.41;;;22.56;61.37
51261;BME280;61705;46.228;24.812;2023-05-25T10:16:47;97643.66;;;22.89;60.83
51261;BME280;61705;46.228;24.812;2023-05-25T10:19:50;97630.75;;;23.03;60.84
51261;BME280;61705;46.228;24.812;2023-05-25T10:27:33;97622.56;;;22.94;58.80
51261;BME280;61705;46.228;24.812;2023-05-25T10:30:05;97617.31;;;22.83;57.75
51261;BME280;61705;46.228;24.812;2023-05-25T10:32:33;97606.41;;;22.85;57.11
51261;BME280;61705;46.228;24.812;2023-05-25T10:35:03;97609.16;;;22.65;56.23
51261;BME280;61705;46.228;24.812;2023-05-25T10:37:32;97610.13;;;22.74;56.67
51261;BME280;61705;46.228;24.812;2023-05-25T10:40:00;97601.38;;;23.00;56.53
51261;BME280;61705;46.228;24.812;2023-05-25T10:42:27;97595.94;;;23.09;56.46
51261;BME280;61705;46.228;24.812;2023-05-25T10:44:56;97583.78;;;23.05;55.86
51261;BME280;61705;46.228;24.812;2023-05-25T10:47:23;97574.81;;;23.32;55.39
51261;BME280;61705;46.228;24.812;2023-05-25T10:49:54;97571.28;;;23.32;54.23
51261;BME280;61705;46.228;24.812;2023-05-25T10:52:30;97568.56;;;23.32;51.73
51261;BME280;61705;46.228;24.812;2023-05-25T10:54:59;97556.53;;;23.26;49.17
51261;BME280;61705;46.228;24.812;2023-05-25T10:57:32;97551.84;;;23.28;46.35
51261;BME280;61705;46.228;24.812;2023-05-25T11:00:01;97548.22;;;23.55;46.08
51261;BME280;61705;46.228;24.812;2023-05-25T11:02:51;97547.94;;;23.76;47.54
51261;BME280;61705;46.228;24.812;2023-05-25T11:07:58;97540.22;;;23.81;45.62
51261;BME280;61705;46.228;24.812;2023-05-25T11:16:12;97523.84;;;23.65;46.17
51261;BME280;61705;46.228;24.812;2023-05-25T11:18:40;97516.09;;;23.80;44.35
51261;BME280;61705;46.228;24.812;2023-05-25T11:23:53;97522.19;;;24.34;45.79
51261;BME280;61705;46.228;24.812;2023-05-25T11:26:31;97515.84;;;24.43;44.97
51261;BME280;61705;46.228;24.812;2023-05-25T11:28:59;97513.66;;;24.81;43.27
51261;BME280;61705;46.228;24.812;2023-05-25T11:31:28;97506.69;;;24.70;41.44
51261;BME280;61705;46.228;24.812;2023-05-25T11:34:00;97498.03;;;25.09;39.55
51261;BME280;61705;46.228;24.812;2023-05-25T11:36:27;97502.38;;;25.69;38.57
51261;BME280;61705;46.228;24.812;2023-05-25T11:38:59;97496.81;;;25.95;37.22
51261;BME280;61705;46.228;24.812;2023-05-25T11:41:38;97501.50;;;25.52;39.99
51261;BME280;61705;46.228;24.812;2023-05-25T11:44:05;97498.94;;;25.18;40.71
51261;BME280;61705;46.228;24.812;2023-05-25T11:46:33;97487.31;;;25.42;41.70
51261;BME280;61705;46.228;24.812;2023-05-25T11:49:00;97495.59;;;25.40;41.97
51261;BME280;61705;46.228;24.812;2023-05-25T11:51:28;97482.91;;;25.65;40.76
51261;BME280;61705;46.228;24.812;2023-05-25T11:53:55;97482.72;;;25.67;41.10
51261;BME280;61705;46.228;24.812;2023-05-25T11:56:22;97475.97;;;25.46;40.67
51261;BME280;61705;46.228;24.812;2023-05-25T11:59:01;97473.09;;;25.48;40.81
51261;BME280;61705;46.228;24.812;2023-05-25T12:01:28;97467.34;;;25.59;40.19
51261;BME280;61705;46.228;24.812;2023-05-25T12:03:57;97465.84;;;25.65;39.60
51261;BME280;61705;46.228;24.812;2023-05-25T12:06:26;97461.09;;;25.99;38.87
51261;BME280;61705;46.228;24.812;2023-05-25T12:08:54;97462.63;;;26.02;38.09
51261;BME280;61705;46.228;24.812;2023-05-25T12:11:47;97451.09;;;26.00;37.44
51261;BME280;61705;46.228;24.812;2023-05-25T12:14:14;97443.53;;;26.35;36.38
51261;BME280;61705;46.228;24.812;2023-05-25T12:16:41;97435.88;;;26.86;35.00
51261;BME280;61705;46.228;24.812;2023-05-25T12:19:09;97439.16;;;27.04;35.13
51261;BME280;61705;46.228;24.812;2023-05-25T12:21:40;97436.34;;;26.98;33.38
51261;BME280;61705;46.228;24.812;2023-05-25T12:24:08;97432.66;;;27.22;31.70
51261;BME280;61705;46.228;24.812;2023-05-25T12:26:45;97438.47;;;27.56;31.13
51261;BME280;61705;46.228;24.812;2023-05-25T12:29:13;97433.53;;;27.98;30.67
51261;BME280;61705;46.228;24.812;2023-05-25T12:31:40;97439.44;;;27.63;31.01
51261;BME280;61705;46.228;24.812;2023-05-25T12:34:12;97447.94;;;28.13;30.76
51261;BME280;61705;46.228;24.812;2023-05-25T12:36:53;97440.44;;;27.85;29.94
51261;BME280;61705;46.228;24.812;2023-05-25T12:41:58;97442.28;;;27.47;30.09
51261;BME280;61705;46.228;24.812;2023-05-25T12:44:44;97449.50;;;27.78;29.93
51261;BME280;61705;46.228;24.812;2023-05-25T12:52:35;97450.56;;;28.06;29.28
51261;BME280;61705;46.228;24.812;2023-05-25T12:55:18;97438.91;;;28.65;29.41
51261;BME280;61705;46.228;24.812;2023-05-25T12:57:45;97435.03;;;28.60;29.10
51261;BME280;61705;46.228;24.812;2023-05-25T13:00:22;97429.88;;;28.65;29.61
51261;BME280;61705;46.228;24.812;2023-05-25T13:02:50;97428.47;;;29.20;28.94
51261;BME280;61705;46.228;24.812;2023-05-25T13:05:23;97439.59;;;29.25;28.49
51261;BME280;61705;46.228;24.812;2023-05-25T13:07:52;97439.91;;;28.64;29.96
51261;BME280;61705;46.228;24.812;2023-05-25T13:10:20;97442.53;;;28.57;30.58
51261;BME280;61705;46.228;24.812;2023-05-25T13:12:48;97463.47;;;28.42;30.84
51261;BME280;61705;46.228;24.812;2023-05-25T13:15:18;97464.81;;;26.93;32.64
51261;BME280;61705;46.228;24.812;2023-05-25T13:17:50;97465.88;;;27.47;32.24
51261;BME280;61705;46.228;24.812;2023-05-25T13:20:19;97476.63;;;26.78;33.49
51261;BME280;61705;46.228;24.812;2023-05-25T13:22:48;97463.81;;;25.34;35.79
51261;BME280;61705;46.228;24.812;2023-05-25T13:25:15;97462.16;;;24.91;36.50
51261;BME280;61705;46.228;24.812;2023-05-25T13:27:47;97467.22;;;24.86;36.79